Wetterdaten: aktuell Donnerstag, 07.05.2026 09:38
Datum Zeit Temperatur Luftfeuchte Luftdruck Regen Wind Richtung Richtung Sonnenschein Helligkeit Taupunkt Windchill
07.05.2026 09:38 8,1 °C 93 % 1012,6 hPa 0,0 l/m² 11,3 km/h (2 Bft) S-SW±45° 210 ° 10 min 69,3 klux 7,0 °C 4,7 °C
07.05.2026 08:40 7,2 °C 93 % 1011,8 hPa 0,0 l/m² 4,6 km/h (1 Bft) W-SW±45° 245 ° 0 min 17,9 klux 6,1 °C 7,2 °C
07.05.2026 07:44 7,0 °C 93 % 1011,9 hPa 0,0 l/m² 7,9 km/h (2 Bft) SW±22.5° 220 ° 0 min 6,91 klux 5,9 °C 5,8 °C
07.05.2026 06:46 6,8 °C 93 % 1010,8 hPa 0,0 l/m² 10,1 km/h (2 Bft) S-SW±45° 200 ° 0 min 2,50 klux 5,7 °C 4,0 °C
07.05.2026 05:49 7,0 °C 93 % 1009,7 hPa 0,0 l/m² 13,8 km/h (3 Bft) S-SW±22.5° 210 ° 0 min 89 lux 5,9 °C 2,1 °C
07.05.2026 04:52 7,0 °C 93 % 1009,7 hPa 0,4 l/m² 11,5 km/h (2 Bft) S-SW±22.5° 210 ° 0 min 0 lux 5,9 °C 3,3 °C
07.05.2026 03:56 7,2 °C 93 % 1009,6 hPa 0,0 l/m² 10,2 km/h (2 Bft) SW±45° 235 ° 0 min 0 lux 6,1 °C 4,4 °C
07.05.2026 02:58 7,3 °C 93 % 1008,5 hPa 0,0 l/m² 9,1 km/h (2 Bft) S-SW±45° 195 ° 0 min 0 lux 6,2 °C 5,2 °C
07.05.2026 02:01 7,4 °C 93 % 1008,5 hPa 0,7 l/m² 14,3 km/h (3 Bft) S±45° 180 ° 0 min 0 lux 6,3 °C 2,3 °C
07.05.2026 01:04 7,5 °C 93 % 1008,4 hPa 1,1 l/m² 12,1 km/h (2 Bft) S±45° 180 ° 0 min 0 lux 6,4 °C 3,6 °C
07.05.2026 00:08 7,6 °C 93 % 1008,4 hPa 1,4 l/m² 5,4 km/h (1 Bft) S±22.5° 190 ° 0 min 0 lux 6,5 °C 7,6 °C
06.05.2026 23:10 7,7 °C 93 % 1008,4 hPa 1,8 l/m² 7,7 km/h (2 Bft) SW±22.5° 215 ° 0 min 0 lux 6,6 °C 6,7 °C
06.05.2026 22:13 8,0 °C 93 % 1008,3 hPa 2,5 l/m² 10,5 km/h (2 Bft) S-SW±22.5° 210 ° 0 min 0 lux 6,9 °C 5,1 °C
06.05.2026 21:16 8,1 °C 93 % 1007,2 hPa 0,7 l/m² 31,2 km/h (5 Bft) S±22.5° 190 ° 0 min 1 lux 7,0 °C -2,3 °C
06.05.2026 20:20 8,5 °C 92 % 1007,0 hPa 1,1 l/m² 17,6 km/h (3 Bft) S±22.5° 180 ° 0 min 442 lux 7,3 °C 2,2 °C
06.05.2026 19:22 8,9 °C 90 % 1005,8 hPa 0,7 l/m² 18,1 km/h (3 Bft) S-SO±22.5° 165 ° 0 min 2,76 klux 7,4 °C 2,5 °C
06.05.2026 18:24 9,4 °C 90 % 1005,7 hPa 0,7 l/m² 14,3 km/h (3 Bft) S±45° 180 ° 0 min 5,86 klux 7,8 °C 4,7 °C
06.05.2026 17:28 10,2 °C 87 % 1005,4 hPa 0,4 l/m² 15,9 km/h (3 Bft) S-SW±67.5° 200 ° 0 min 7,13 klux 8,1 °C 5,0 °C
06.05.2026 16:30 11,6 °C 87 % 1005,0 hPa 0,0 l/m² 11,3 km/h (2 Bft) S±45° 185 ° 0 min 21,2 klux 9,5 °C 8,7 °C
06.05.2026 15:33 12,0 °C 88 % 1003,8 hPa 1,8 l/m² 25,6 km/h (4 Bft) S±45° 190 ° 0 min 39,7 klux 10,1 °C 4,4 °C
06.05.2026 14:36 13,2 °C 79 % 1003,4 hPa 1,1 l/m² 13,1 km/h (3 Bft) S-SW±67.5° 195 ° 0 min 9,9 klux 9,6 °C 9,7 °C
06.05.2026 13:39 15,0 °C 71 % 1002,9 hPa 0,0 l/m² 13,1 km/h (3 Bft) S±45° 180 ° 0 min 15,0 klux 9,8 °C 11,9 °C
06.05.2026 12:42 16,2 °C 69 % 1002,6 hPa 0,0 l/m² 0,6 km/h (0 Bft) W-SW 255 ° 13 min 32,0 klux 10,5 °C 16,2 °C
06.05.2026 11:45 15,3 °C 72 % 1002,8 hPa 0,0 l/m² 0,0 km/h (0 Bft) SW 220 ° 15 min 43,0 klux 10,3 °C 15,3 °C
06.05.2026 10:48 14,0 °C 78 % 1003,2 hPa 0,0 l/m² 1,4 km/h (1 Bft) SW±22.5° 215 ° 27 min 42,9 klux 10,2 °C 14,0 °C
06.05.2026 10:00 12,5 °C 83 % 1003,7 hPa 0,0 l/m² 17,8 km/h (3 Bft) S±22.5° 190 ° 0 min 32,8 klux 9,7 °C 7,2 °C
_ Min-Zeit 06:01 12:33 12:19 - 11:45 - - - - 06:01 21:16
Minimum _ 6,8 °C 68 % 1002,5 hPa - 0,0 km/h (0 Bft) - - - - 5,7 °C -2,3 °C
_ Max-Zeit 12:19 07:10 09:34 14:33 21:16 - - 11:55 11:58 12:04 12:19
Maximum _ 16,6 °C 94 % 1012,6 hPa 0,7 l/m² 31,2 km/h
S (5 Bft)
- - 4 min 122 klux 11,6 °C 16,6 °C
Durchschnitt _ 9,8 °C 88 % 1006,8 hPa #13,7 l/m² 12,1 km/h (2 Bft) S - #10 min. 13,7 klux 7,8 °C 6,4 °C